Terminal Aerodrome Forecast
Issued by NWS Charleston, WV

Home | Current Version | Previous Version | Text Only | Print | Product List | Glossary On
Versions: 1 2 3 4 5 6 7 8 9 10 11 12 13 14 15 16 17 18 19 20
765
FTUS41 KRLX 082332
TAFBKW
TAF
KBKW 082332Z 0900/0924 27009KT 5SM BR OVC012
     FM090200 26010G20KT 2SM -SHSN OVC010
     FM090400 27010KT 3SM -SHSN OVC015
     FM090900 27010G20KT 2SM -SHSN OVC008=

USA.gov is the U.S. government's official web portal to all federal, state and local government web resources and services.